Balance Rock, California
Current Conditions -  °F | °C
As of 7:15 PM on Wednesday 22 Oct 2014 (Local Time) from KPTV Reporting Station
Few Clouds Few Clouds  
Wind Chill: 64°   Ceiling: Unl
Heat Index: 64°   Visibility: 10mi
Dew Point: 48°   Wind: 6mph
Humidity: 56%   Direction: 220°SW
Pressure: 30.03"   Gusts: NA
Location:  35.7903°N, 118.709°W
Report Text: KPTV 230215Z 22005KT 10SM FEW023 18/09 A3003 RMK AO1
Loading
Personal Weather Stations






























Interactive Weather Map
Tropical Storm Tracking
New forecast layout! Learn more

10-Day Weather Forecast

Advertisements
Track Severe Weather on mobile